createdAt,value
2018-12-06T00:02:13.990Z,8.83
2018-12-06T00:04:41.450Z,8.63
2018-12-06T00:07:08.948Z,8.73
2018-12-06T00:09:36.395Z,8.50
2018-12-06T00:12:03.972Z,8.17
2018-12-06T00:14:31.435Z,8.17
2018-12-06T00:16:58.995Z,9.07
2018-12-06T00:19:26.452Z,8.80
2018-12-06T00:21:53.897Z,8.83
2018-12-06T00:24:21.392Z,8.57
2018-12-06T00:26:48.827Z,9.00
2018-12-06T00:29:16.302Z,8.87
2018-12-06T00:31:43.777Z,8.47
2018-12-06T00:34:11.228Z,8.60
2018-12-06T00:36:38.784Z,8.77
2018-12-06T00:39:06.548Z,8.93
2018-12-06T00:41:34.021Z,8.40
2018-12-06T00:44:01.469Z,9.53
2018-12-06T00:46:28.939Z,7.70
2018-12-06T00:48:56.408Z,9.17
2018-12-06T00:51:23.964Z,8.07
2018-12-06T00:53:51.428Z,8.10
2018-12-06T00:56:18.895Z,8.60
2018-12-06T00:58:46.448Z,8.17
2018-12-06T01:01:13.922Z,8.03
2018-12-06T01:03:41.580Z,7.80
2018-12-06T01:06:09.151Z,9.23
2018-12-06T01:08:36.703Z,8.10
2018-12-06T01:11:04.135Z,8.27
2018-12-06T01:13:31.627Z,7.77
2018-12-06T01:15:59.193Z,7.83
2018-12-06T01:18:26.648Z,7.67
2018-12-06T01:20:54.124Z,7.90
2018-12-06T01:23:21.682Z,8.50
2018-12-06T01:25:49.113Z,7.87
2018-12-06T01:28:16.599Z,8.10
2018-12-06T01:30:44.069Z,8.10
2018-12-06T01:33:11.836Z,7.63
2018-12-06T01:35:39.300Z,8.70
2018-12-06T01:38:06.761Z,7.67
2018-12-06T01:40:34.216Z,7.67
2018-12-06T01:43:01.680Z,8.40
2018-12-06T01:45:29.153Z,8.70
2018-12-06T01:47:56.608Z,7.60
2018-12-06T01:50:24.160Z,7.70
2018-12-06T01:52:51.600Z,7.93
2018-12-06T01:55:19.083Z,7.53
2018-12-06T01:57:46.520Z,7.13
2018-12-06T02:00:14.535Z,7.63
2018-12-06T02:02:41.987Z,8.10
2018-12-06T02:05:09.424Z,7.20
2018-12-06T02:07:36.904Z,7.40
2018-12-06T02:10:05.911Z,7.47
2018-12-06T02:12:33.571Z,7.57
2018-12-06T02:15:01.036Z,7.63
2018-12-06T02:17:28.600Z,8.10
2018-12-06T02:19:56.023Z,8.20
2018-12-06T02:22:23.497Z,6.90
2018-12-06T02:24:50.979Z,7.03
2018-12-06T02:27:18.436Z,6.80
2018-12-06T02:29:51.484Z,7.13
2018-12-06T02:32:18.935Z,7.57
2018-12-06T02:34:46.455Z,6.80
2018-12-06T02:37:13.996Z,7.40
2018-12-06T02:39:41.473Z,7.37
2018-12-06T02:42:09.041Z,7.00
2018-12-06T02:44:36.687Z,6.70
2018-12-06T02:47:04.274Z,6.53
2018-12-06T02:49:31.728Z,6.90
2018-12-06T02:51:59.195Z,7.10
2018-12-06T02:54:26.625Z,7.27
2018-12-06T02:56:54.059Z,7.10
2018-12-06T02:59:21.599Z,6.97
2018-12-06T03:01:49.092Z,6.50
2018-12-06T03:04:16.599Z,7.50
2018-12-06T03:06:44.143Z,7.80
2018-12-06T03:09:11.729Z,6.80
2018-12-06T03:11:39.151Z,7.77
2018-12-06T03:14:06.664Z,7.70
2018-12-06T03:16:34.113Z,7.80
2018-12-06T03:19:01.577Z,7.50
2018-12-06T03:21:29.037Z,7.43
2018-12-06T03:23:56.600Z,8.83
2018-12-06T03:26:24.068Z,9.00
2018-12-06T03:28:51.530Z,8.90
2018-12-06T03:31:18.993Z,9.77
2018-12-06T03:33:46.550Z,8.50
2018-12-06T03:36:13.992Z,9.17
2018-12-06T03:38:41.472Z,9.60
2018-12-06T03:41:08.936Z,10.23
2018-12-06T03:43:36.396Z,8.30
2018-12-06T03:46:03.956Z,8.67
2018-12-06T03:48:31.529Z,9.80
2018-12-06T03:50:58.963Z,10.00
2018-12-06T03:53:26.451Z,9.50
2018-12-06T03:55:54.009Z,9.77
2018-12-06T03:58:21.473Z,9.80
2018-12-06T04:00:48.933Z,10.13
2018-12-06T04:03:16.465Z,9.13
2018-12-06T04:05:44.030Z,9.83
2018-12-06T04:08:11.520Z,9.77
2018-12-06T04:10:38.985Z,10.60
2018-12-06T04:13:06.544Z,9.93
2018-12-06T04:15:34.640Z,11.13
2018-12-06T04:18:02.188Z,10.67
2018-12-06T04:20:29.748Z,10.77
2018-12-06T04:22:57.180Z,10.17
2018-12-06T04:25:24.625Z,10.70
2018-12-06T04:27:52.060Z,11.70
2018-12-06T04:30:19.508Z,10.77
2018-12-06T04:32:46.957Z,12.20
2018-12-06T04:35:14.420Z,12.60
2018-12-06T04:37:41.981Z,12.23
2018-12-06T04:40:09.432Z,13.20
2018-12-06T04:42:36.906Z,12.30
2018-12-06T04:45:07.022Z,12.63
2018-12-06T04:47:34.484Z,13.73
2018-12-06T04:50:02.048Z,12.47
2018-12-06T04:52:29.516Z,12.80
2018-12-06T04:54:56.942Z,12.87
2018-12-06T04:57:24.440Z,12.30
2018-12-06T04:59:51.893Z,12.47
2018-12-06T05:02:19.348Z,13.43
2018-12-06T05:04:46.890Z,15.17
2018-12-06T05:07:14.355Z,13.10
2018-12-06T05:09:41.844Z,14.50
2018-12-06T05:12:09.416Z,13.47
2018-12-06T05:14:36.972Z,13.60
2018-12-06T05:17:04.432Z,14.43
2018-12-06T05:19:31.887Z,13.87
2018-12-06T05:21:59.356Z,13.90
2018-12-06T05:24:26.808Z,15.17
2018-12-06T05:26:54.379Z,15.93
2018-12-06T05:29:21.840Z,15.03
2018-12-06T05:31:49.304Z,15.50
2018-12-06T05:34:16.872Z,14.83
2018-12-06T05:36:44.361Z,15.63
2018-12-06T05:39:11.897Z,15.20
2018-12-06T05:41:39.351Z,15.50
2018-12-06T05:44:06.822Z,16.00
2018-12-06T05:46:34.276Z,15.67
2018-12-06T05:49:01.845Z,16.10
2018-12-06T05:51:29.276Z,16.23
2018-12-06T05:53:56.786Z,17.10
2018-12-06T05:56:24.324Z,16.00
2018-12-06T05:58:51.767Z,16.70
2018-12-06T06:01:19.248Z,15.77
2018-12-06T06:03:46.684Z,16.00
2018-12-06T06:06:14.172Z,15.23
2018-12-06T06:08:41.631Z,16.57
2018-12-06T06:11:09.095Z,15.83
2018-12-06T06:13:36.560Z,15.03
2018-12-06T06:16:04.119Z,14.47
2018-12-06T06:18:31.612Z,13.57
2018-12-06T06:20:59.153Z,13.77
2018-12-06T06:23:26.613Z,14.70
2018-12-06T06:25:54.065Z,13.83
2018-12-06T06:28:21.532Z,15.20
2018-12-06T06:30:48.996Z,14.00
2018-12-06T06:33:16.525Z,13.47
2018-12-06T06:35:44.020Z,14.67
2018-12-06T06:38:11.572Z,14.37
2018-12-06T06:40:39.151Z,15.30
2018-12-06T06:43:06.712Z,15.47
2018-12-06T06:45:34.277Z,15.70
2018-12-06T06:48:01.731Z,17.37
2018-12-06T06:50:29.192Z,16.00
2018-12-06T06:52:56.652Z,16.03
2018-12-06T06:55:24.230Z,15.50
2018-12-06T06:57:51.783Z,16.73
2018-12-06T07:00:19.365Z,15.80
2018-12-06T07:02:46.816Z,15.97
2018-12-06T07:05:14.290Z,16.10
2018-12-06T07:07:41.732Z,17.70
2018-12-06T07:10:09.301Z,15.93
2018-12-06T07:12:36.858Z,16.40
2018-12-06T07:15:04.677Z,18.30
2018-12-06T07:17:32.109Z,16.30
2018-12-06T07:20:00.164Z,16.93
2018-12-06T07:22:27.623Z,17.60
2018-12-06T07:24:55.193Z,15.60
2018-12-06T07:27:22.653Z,17.03
2018-12-06T07:29:50.221Z,16.37
2018-12-06T07:32:17.685Z,18.03
2018-12-06T07:34:45.240Z,16.50
2018-12-06T07:37:12.693Z,17.30
2018-12-06T07:39:40.168Z,16.10
2018-12-06T07:42:07.628Z,16.97
2018-12-06T07:44:35.084Z,18.37
2018-12-06T07:47:02.661Z,18.20
2018-12-06T07:49:30.122Z,19.30
2018-12-06T07:51:57.576Z,17.43
2018-12-06T07:54:25.136Z,18.03
2018-12-06T07:56:52.624Z,19.30
2018-12-06T07:59:20.173Z,18.50
2018-12-06T08:01:47.833Z,18.90
2018-12-06T08:04:15.297Z,18.17
2018-12-06T08:06:42.869Z,20.00
2018-12-06T08:09:10.420Z,19.80
2018-12-06T08:11:38.734Z,18.80
2018-12-06T08:14:06.369Z,18.73
2018-12-06T08:16:33.832Z,19.73
2018-12-06T08:19:01.389Z,20.30
2018-12-06T08:21:28.856Z,21.10
2018-12-06T08:23:56.415Z,20.57
2018-12-06T08:26:23.885Z,21.43
2018-12-06T08:28:51.341Z,21.00
2018-12-06T08:31:18.805Z,22.07
2018-12-06T08:33:46.365Z,20.77
2018-12-06T08:36:13.927Z,22.30
2018-12-06T08:38:41.388Z,22.30
2018-12-06T08:41:08.897Z,22.60
2018-12-06T08:43:36.417Z,22.90
2018-12-06T08:46:03.892Z,21.70
2018-12-06T08:48:31.424Z,20.70
2018-12-06T08:50:58.996Z,21.97
2018-12-06T08:53:26.533Z,22.30
2018-12-06T08:55:54.028Z,22.77
2018-12-06T08:58:21.484Z,23.63
2018-12-06T09:00:49.058Z,23.17
2018-12-06T09:03:16.621Z,23.90
2018-12-06T09:05:44.176Z,21.07
2018-12-06T09:08:11.635Z,22.60
2018-12-06T09:10:40.608Z,25.50
2018-12-06T09:13:08.377Z,22.20
2018-12-06T09:15:35.871Z,24.20
2018-12-06T09:18:03.439Z,23.60
2018-12-06T09:20:31.005Z,24.67
2018-12-06T09:22:58.484Z,23.20
2018-12-06T09:25:26.024Z,21.83
2018-12-06T09:27:53.485Z,22.00
2018-12-06T09:30:21.048Z,23.47
2018-12-06T09:32:48.510Z,22.70
2018-12-06T09:35:15.971Z,22.97
2018-12-06T09:37:43.420Z,22.73
2018-12-06T09:40:10.909Z,21.87
2018-12-06T09:42:38.526Z,20.77
2018-12-06T09:45:06.533Z,21.47
2018-12-06T09:47:34.097Z,19.70
2018-12-06T09:50:01.565Z,21.37
2018-12-06T09:52:29.066Z,20.30
2018-12-06T09:54:56.472Z,21.10
2018-12-06T09:57:23.940Z,21.80
2018-12-06T09:59:51.400Z,22.17
2018-12-06T10:02:18.837Z,22.57
2018-12-06T10:04:46.328Z,24.80
2018-12-06T10:07:13.793Z,24.20
2018-12-06T10:09:41.255Z,24.73
2018-12-06T10:12:08.812Z,24.77
2018-12-06T10:14:36.280Z,24.70
2018-12-06T10:17:03.969Z,25.90
2018-12-06T10:19:31.417Z,24.83
2018-12-06T10:21:59.026Z,26.97
2018-12-06T10:24:26.536Z,26.67
2018-12-06T10:26:53.996Z,27.30
2018-12-06T10:29:21.456Z,27.30
2018-12-06T10:31:48.953Z,28.30
2018-12-06T10:34:16.376Z,27.73
2018-12-06T10:36:43.941Z,27.73
2018-12-06T10:39:11.505Z,27.07
2018-12-06T10:41:39.004Z,28.13
2018-12-06T10:44:06.539Z,25.70
2018-12-06T10:46:34.097Z,26.30
2018-12-06T10:49:01.661Z,26.80
2018-12-06T10:51:40.480Z,27.33
2018-12-06T10:54:08.168Z,27.67
2018-12-06T10:56:35.863Z,28.20
2018-12-06T10:59:03.341Z,26.87
2018-12-06T11:01:36.384Z,27.87
2018-12-06T11:04:03.929Z,27.37
2018-12-06T11:06:31.492Z,25.10
2018-12-06T11:08:58.953Z,26.97
2018-12-06T11:11:26.611Z,27.97
2018-12-06T11:13:54.184Z,27.50
2018-12-06T11:16:21.636Z,24.50
2018-12-06T11:18:49.273Z,22.83
2018-12-06T11:21:16.772Z,22.97
2018-12-06T11:23:44.436Z,22.87
2018-12-06T11:26:37.653Z,24.30
2018-12-06T11:29:05.128Z,23.40
2018-12-06T11:31:32.581Z,21.70
2018-12-06T11:34:00.041Z,23.17
2018-12-06T11:36:27.517Z,23.93
2018-12-06T11:38:55.092Z,21.83
2018-12-06T11:41:22.552Z,23.63
2018-12-06T11:43:50.121Z,23.00
2018-12-06T11:46:17.559Z,21.37
2018-12-06T11:48:45.053Z,20.93
2018-12-06T11:51:12.708Z,19.83
2018-12-06T11:53:40.155Z,19.03
2018-12-06T11:56:07.700Z,19.80
2018-12-06T11:58:35.196Z,19.37
2018-12-06T12:01:02.725Z,20.10
2018-12-06T12:03:30.246Z,18.63
2018-12-06T12:05:58.800Z,19.93
2018-12-06T12:08:26.471Z,19.77
2018-12-06T12:10:54.036Z,20.70
2018-12-06T12:13:21.607Z,19.10
2018-12-06T12:15:49.060Z,18.80
2018-12-06T12:18:16.520Z,19.13
2018-12-06T12:20:43.979Z,18.30
2018-12-06T12:23:11.448Z,18.50
2018-12-06T12:25:39.013Z,18.00
2018-12-06T12:28:06.575Z,18.43
2018-12-06T12:30:34.035Z,16.43
2018-12-06T12:33:01.604Z,18.43
2018-12-06T12:35:29.038Z,17.53
2018-12-06T12:37:56.520Z,17.50
2018-12-06T12:40:23.988Z,16.80
2018-12-06T12:42:51.548Z,16.30
2018-12-06T12:45:19.004Z,15.87
2018-12-06T12:47:46.474Z,16.00
2018-12-06T12:50:13.930Z,16.07
2018-12-06T12:52:41.400Z,15.70
2018-12-06T12:55:08.960Z,15.30
2018-12-06T12:57:36.517Z,15.00
2018-12-06T13:00:05.823Z,12.47
2018-12-06T13:02:33.355Z,13.97
2018-12-06T13:05:00.919Z,13.27
2018-12-06T13:07:28.424Z,13.83
2018-12-06T13:09:55.888Z,13.77
2018-12-06T13:12:23.431Z,13.23
2018-12-06T13:14:51.013Z,13.60
2018-12-06T13:17:18.571Z,14.13
2018-12-06T13:19:46.133Z,13.97
2018-12-06T13:22:13.697Z,16.10
2018-12-06T13:24:41.665Z,15.83
2018-12-06T13:27:09.144Z,14.70
2018-12-06T13:29:36.693Z,15.30
2018-12-06T13:32:04.151Z,15.43
2018-12-06T13:34:31.722Z,13.50
2018-12-06T13:36:59.196Z,12.60
2018-12-06T13:39:26.745Z,12.40
2018-12-06T13:41:54.316Z,11.27
2018-12-06T13:44:21.794Z,11.97
2018-12-06T13:46:49.250Z,12.87
2018-12-06T13:49:16.707Z,11.87
2018-12-06T13:51:44.165Z,11.63
2018-12-06T13:54:11.724Z,10.07
2018-12-06T13:56:39.247Z,11.13
2018-12-06T13:59:06.747Z,11.60
2018-12-06T14:01:34.265Z,11.50
2018-12-06T14:04:01.749Z,11.90
2018-12-06T14:06:29.338Z,10.67
2018-12-06T14:08:56.897Z,11.70
2018-12-06T14:11:24.356Z,11.77
2018-12-06T14:13:51.821Z,10.77
2018-12-06T14:16:19.271Z,12.17
2018-12-06T14:18:46.744Z,11.50
2018-12-06T14:21:14.185Z,11.70
2018-12-06T14:23:41.637Z,11.70
2018-12-06T14:26:09.129Z,11.40
2018-12-06T14:28:36.695Z,11.87
2018-12-06T14:31:04.247Z,11.67
2018-12-06T14:33:31.717Z,12.20
2018-12-06T14:35:59.176Z,11.80
2018-12-06T14:38:26.636Z,12.40
2018-12-06T14:40:54.105Z,11.80
2018-12-06T14:43:21.551Z,12.23
2018-12-06T14:45:49.500Z,11.60
2018-12-06T14:48:17.180Z,12.20
2018-12-06T14:50:44.652Z,11.80
2018-12-06T14:53:12.124Z,12.10
2018-12-06T14:55:39.680Z,10.60
2018-12-06T14:58:07.148Z,12.17
2018-12-06T15:00:34.781Z,10.80
2018-12-06T15:03:02.272Z,12.83
2018-12-06T15:05:29.718Z,10.90
2018-12-06T15:07:57.269Z,11.97
2018-12-06T15:10:24.759Z,11.80
2018-12-06T15:12:52.200Z,10.20
2018-12-06T15:15:19.789Z,11.00
2018-12-06T15:17:47.252Z,11.40
2018-12-06T15:20:14.712Z,10.17
2018-12-06T15:22:42.174Z,9.40
2018-12-06T15:25:09.621Z,11.13
2018-12-06T15:27:38.003Z,10.80
2018-12-06T15:30:06.680Z,10.80
2018-12-06T15:32:34.117Z,11.17
2018-12-06T15:35:01.697Z,10.77
2018-12-06T15:37:29.193Z,11.37
2018-12-06T15:39:56.632Z,10.40
2018-12-06T15:42:24.116Z,10.43
2018-12-06T15:44:51.572Z,10.80
2018-12-06T15:47:19.080Z,11.40
2018-12-06T15:49:46.552Z,11.70
2018-12-06T15:52:13.989Z,11.10
2018-12-06T15:54:41.548Z,10.27
2018-12-06T15:57:08.979Z,10.80
2018-12-06T15:59:36.454Z,11.10
2018-12-06T16:02:03.928Z,11.50
2018-12-06T16:04:31.472Z,10.93
2018-12-06T16:06:58.912Z,11.87
2018-12-06T16:09:26.356Z,12.10
2018-12-06T16:11:53.855Z,11.70
2018-12-06T16:14:21.306Z,11.50
2018-12-06T16:16:48.781Z,12.00
2018-12-06T16:19:16.258Z,11.17
2018-12-06T16:21:43.764Z,11.47
2018-12-06T16:24:11.260Z,11.20
2018-12-06T16:26:38.749Z,11.00
2018-12-06T16:29:06.556Z,10.67
2018-12-06T16:31:34.060Z,10.60
2018-12-06T16:34:01.528Z,10.63
2018-12-06T16:36:29.020Z,12.57
2018-12-06T16:38:56.553Z,11.07
2018-12-06T16:41:24.108Z,12.30
2018-12-06T16:43:51.539Z,10.90
2018-12-06T16:46:18.971Z,11.40
2018-12-06T16:48:46.409Z,11.10
2018-12-06T16:51:13.880Z,10.97
2018-12-06T16:53:41.421Z,10.87
2018-12-06T16:56:08.884Z,10.07
2018-12-06T16:58:36.409Z,11.93
2018-12-06T17:01:04.007Z,11.17
2018-12-06T17:03:31.464Z,11.10
2018-12-06T17:05:58.928Z,9.97
2018-12-06T17:08:26.505Z,11.23
2018-12-06T17:10:54.009Z,12.10
2018-12-06T17:13:21.501Z,12.30
2018-12-06T17:15:49.015Z,12.00
2018-12-06T17:18:16.547Z,12.40
2018-12-06T17:20:44.001Z,11.70
2018-12-06T17:23:11.469Z,13.33
2018-12-06T17:25:38.932Z,12.43
2018-12-06T17:28:06.493Z,13.00
2018-12-06T17:30:33.958Z,12.93
2018-12-06T17:33:01.424Z,12.87
2018-12-06T17:35:28.985Z,12.40
2018-12-06T17:37:56.544Z,12.77
2018-12-06T17:40:24.112Z,12.50
2018-12-06T17:42:51.569Z,13.23
2018-12-06T17:45:19.204Z,13.47
2018-12-06T17:47:46.722Z,12.60
2018-12-06T17:50:14.157Z,13.00
2018-12-06T17:52:41.616Z,11.57
2018-12-06T17:55:09.136Z,12.60
2018-12-06T17:57:36.650Z,13.00
2018-12-06T18:00:07.071Z,12.90
2018-12-06T18:02:34.604Z,12.90
2018-12-06T18:05:02.053Z,12.67
2018-12-06T18:07:29.488Z,12.43
2018-12-06T18:09:57.024Z,11.83
2018-12-06T18:12:24.603Z,11.53
2018-12-06T18:14:52.091Z,12.20
2018-12-06T18:17:19.511Z,11.23
2018-12-06T18:19:47.085Z,10.37
2018-12-06T18:22:14.529Z,10.37
2018-12-06T18:24:42.001Z,10.23
2018-12-06T18:27:09.593Z,10.80
2018-12-06T18:29:37.136Z,11.07
2018-12-06T18:32:04.756Z,11.67
2018-12-06T18:34:32.200Z,12.13
2018-12-06T18:36:59.708Z,10.40
2018-12-06T18:39:27.192Z,11.70
2018-12-06T18:41:54.735Z,10.60
2018-12-06T18:44:22.228Z,11.10
2018-12-06T18:46:49.672Z,11.43
2018-12-06T18:49:17.225Z,9.93
2018-12-06T18:51:44.760Z,12.10
2018-12-06T18:54:12.247Z,12.43
2018-12-06T18:56:39.817Z,13.10
2018-12-06T18:59:07.282Z,12.10
2018-12-06T19:01:34.744Z,13.20
2018-12-06T19:04:02.196Z,12.40
2018-12-06T19:06:29.660Z,11.50
2018-12-06T19:08:57.191Z,11.17
2018-12-06T19:11:24.683Z,11.67
2018-12-06T19:13:52.145Z,13.23
2018-12-06T19:16:19.603Z,12.50
2018-12-06T19:18:47.138Z,12.70
2018-12-06T19:21:14.560Z,13.70
2018-12-06T19:23:42.523Z,13.70
2018-12-06T19:26:10.073Z,15.03
2018-12-06T19:28:37.645Z,14.70
2018-12-06T19:31:05.208Z,14.30
2018-12-06T19:33:32.830Z,12.87
2018-12-06T19:36:00.327Z,14.63
2018-12-06T19:38:27.889Z,14.13
2018-12-06T19:40:55.469Z,14.50
2018-12-06T19:43:23.204Z,15.23
2018-12-06T19:45:50.684Z,15.90
2018-12-06T19:48:18.140Z,14.70
2018-12-06T19:50:45.605Z,15.50
2018-12-06T19:53:13.180Z,14.37
2018-12-06T19:55:40.737Z,13.10
2018-12-06T19:58:08.309Z,14.60
2018-12-06T20:00:35.884Z,14.70
2018-12-06T20:03:03.308Z,15.80
2018-12-06T20:05:30.792Z,15.03
2018-12-06T20:07:58.349Z,17.33
2018-12-06T20:10:25.876Z,16.67
2018-12-06T20:12:53.322Z,17.37
2018-12-06T20:15:20.828Z,16.40
2018-12-06T20:17:48.304Z,14.20
2018-12-06T20:20:23.366Z,16.27
2018-12-06T20:22:45.369Z,16.20
2018-12-06T20:25:12.824Z,14.87
2018-12-06T20:27:40.357Z,15.53
2018-12-06T20:30:07.960Z,14.20
2018-12-06T20:32:35.416Z,16.67
2018-12-06T20:35:02.979Z,16.07
2018-12-06T20:37:30.428Z,16.87
2018-12-06T20:39:57.900Z,16.70
2018-12-06T20:42:25.469Z,17.03
2018-12-06T20:44:53.099Z,16.03
2018-12-06T20:47:20.511Z,15.97
2018-12-06T20:49:48.065Z,17.63
2018-12-06T20:52:15.622Z,17.17
2018-12-06T20:54:43.176Z,15.50
2018-12-06T20:57:10.643Z,16.23
2018-12-06T20:59:38.087Z,17.43
2018-12-06T21:02:05.568Z,15.83
2018-12-06T21:04:33.132Z,15.43
2018-12-06T21:07:00.732Z,15.40
2018-12-06T21:09:28.258Z,14.13
2018-12-06T21:11:55.725Z,13.50
2018-12-06T21:14:23.191Z,15.20
2018-12-06T21:16:50.768Z,14.20
2018-12-06T21:19:18.308Z,13.60
2018-12-06T21:21:45.872Z,13.57
2018-12-06T21:24:13.396Z,13.80
2018-12-06T21:26:40.899Z,13.10
2018-12-06T21:29:08.473Z,13.90
2018-12-06T21:31:35.936Z,13.60
2018-12-06T21:34:03.488Z,12.70
2018-12-06T21:36:31.028Z,13.17
2018-12-06T21:38:58.512Z,13.00
2018-12-06T21:41:26.076Z,12.73
2018-12-06T21:43:53.573Z,12.23
2018-12-06T21:46:21.100Z,12.80
2018-12-06T21:48:48.568Z,11.67
2018-12-06T21:51:16.024Z,11.40
2018-12-06T21:53:43.494Z,12.23
2018-12-06T21:56:11.077Z,11.77
2018-12-06T21:58:38.624Z,11.83
2018-12-06T22:01:06.064Z,11.13
2018-12-06T22:03:33.533Z,11.50
2018-12-06T22:06:01.105Z,11.33
2018-12-06T22:08:28.560Z,10.70
2018-12-06T22:10:56.023Z,10.50
2018-12-06T22:13:23.589Z,10.63
2018-12-06T22:15:51.044Z,10.60
2018-12-06T22:18:18.515Z,10.23
2018-12-06T22:20:45.948Z,9.77
2018-12-06T22:23:13.440Z,10.23
2018-12-06T22:25:40.965Z,10.60
2018-12-06T22:28:08.469Z,9.60
2018-12-06T22:30:35.924Z,9.90
2018-12-06T22:33:03.396Z,10.90
2018-12-06T22:35:30.945Z,11.43
2018-12-06T22:37:58.383Z,13.07
2018-12-06T22:40:25.818Z,14.00
2018-12-06T22:42:53.337Z,11.73
2018-12-06T22:45:55.475Z,12.73
2018-12-06T22:48:23.555Z,12.80
2018-12-06T22:50:51.120Z,11.87
2018-12-06T22:53:18.688Z,10.90
2018-12-06T22:55:46.180Z,10.17
2018-12-06T22:58:13.708Z,10.50
2018-12-06T23:00:43.702Z,9.80
2018-12-06T23:03:11.290Z,10.30
2018-12-06T23:05:38.851Z,10.80
2018-12-06T23:08:06.529Z,10.73
2018-12-06T23:10:34.083Z,10.43
2018-12-06T23:13:01.549Z,11.60
2018-12-06T23:15:29.096Z,10.83
2018-12-06T23:17:56.567Z,8.57
2018-12-06T23:20:24.145Z,8.60
2018-12-06T23:22:51.710Z,6.73
2018-12-06T23:25:19.156Z,8.00
2018-12-06T23:27:46.629Z,7.63
2018-12-06T23:30:14.107Z,8.20
2018-12-06T23:32:41.649Z,8.97
2018-12-06T23:35:09.212Z,10.97
2018-12-06T23:37:36.676Z,9.93
2018-12-06T23:40:05.366Z,8.90
2018-12-06T23:42:32.820Z,9.13
2018-12-06T23:45:00.280Z,9.67
2018-12-06T23:47:27.717Z,8.70
2018-12-06T23:49:55.204Z,9.27
2018-12-06T23:52:22.671Z,10.50
2018-12-06T23:54:50.127Z,10.07
2018-12-06T23:57:17.701Z,10.37
2018-12-06T23:59:45.161Z,11.40
